createdAt,value
2018-10-21T00:00:50.865Z,0.00
2018-10-21T00:01:50.855Z,0.00
2018-10-21T00:02:51.206Z,0.00
2018-10-21T00:03:50.840Z,0.00
2018-10-21T00:04:50.827Z,0.00
2018-10-21T00:05:50.816Z,0.00
2018-10-21T00:06:50.801Z,0.00
2018-10-21T00:07:51.201Z,0.00
2018-10-21T00:08:50.781Z,0.00
2018-10-21T00:09:50.767Z,0.00
2018-10-21T00:10:50.760Z,0.00
2018-10-21T00:11:50.747Z,0.00
2018-10-21T00:12:51.185Z,0.00
2018-10-21T00:13:50.740Z,0.00
2018-10-21T00:14:50.722Z,0.00
2018-10-21T00:15:50.703Z,0.00
2018-10-21T00:16:50.700Z,0.00
2018-10-21T00:17:50.694Z,0.00
2018-10-21T00:18:50.680Z,0.00
2018-10-21T00:19:50.685Z,0.00
2018-10-21T00:20:50.648Z,0.00
2018-10-21T00:21:50.638Z,0.00
2018-10-21T00:22:50.681Z,0.00
2018-10-21T00:23:50.621Z,0.00
2018-10-21T00:24:50.608Z,0.00
2018-10-21T00:25:50.602Z,0.00
2018-10-21T00:26:50.586Z,0.00
2018-10-21T00:27:50.593Z,0.00
2018-10-21T00:28:50.565Z,0.00
2018-10-21T00:29:50.559Z,0.00
2018-10-21T00:30:50.772Z,0.00
2018-10-21T00:31:50.544Z,0.00
2018-10-21T00:32:50.685Z,0.00
2018-10-21T00:33:50.515Z,0.00
2018-10-21T00:34:50.509Z,0.00
2018-10-21T00:35:50.490Z,0.00
2018-10-21T00:36:50.483Z,0.00
2018-10-21T00:37:50.492Z,0.00
2018-10-21T00:38:50.469Z,0.00
2018-10-21T00:39:50.456Z,0.00
2018-10-21T00:40:50.439Z,0.00
2018-10-21T00:41:50.430Z,0.00
2018-10-21T00:42:50.693Z,0.00
2018-10-21T00:43:50.408Z,0.00
2018-10-21T00:44:50.395Z,0.00
2018-10-21T00:45:50.387Z,0.00
2018-10-21T00:46:50.383Z,0.00
2018-10-21T00:47:50.383Z,0.00
2018-10-21T00:48:50.362Z,0.00
2018-10-21T00:49:50.345Z,0.00
2018-10-21T00:50:50.341Z,0.00
2018-10-21T00:51:50.532Z,0.00
2018-10-21T00:52:50.334Z,0.00
2018-10-21T00:53:50.310Z,0.00
2018-10-21T00:54:50.292Z,0.00
2018-10-21T00:55:50.283Z,0.00
2018-10-21T00:56:50.267Z,0.00
2018-10-21T00:57:50.278Z,0.00
2018-10-21T00:58:50.257Z,0.00
2018-10-21T00:59:50.256Z,0.00
2018-10-21T01:00:50.225Z,0.00
2018-10-21T01:01:50.219Z,0.00
2018-10-21T01:02:50.204Z,0.00
2018-10-21T01:03:50.208Z,0.00
2018-10-21T01:04:50.185Z,0.00
2018-10-21T01:05:50.182Z,0.00
2018-10-21T01:06:50.192Z,0.00
2018-10-21T01:07:50.153Z,0.00
2018-10-21T01:08:50.185Z,0.00
2018-10-21T01:09:50.141Z,0.00
2018-10-21T01:10:50.134Z,0.00
2018-10-21T01:11:50.112Z,0.00
2018-10-21T01:12:50.328Z,0.00
2018-10-21T01:13:50.118Z,0.00
2018-10-21T01:14:50.098Z,0.00
2018-10-21T01:15:50.073Z,0.00
2018-10-21T01:16:50.061Z,0.00
2018-10-21T01:17:50.049Z,0.00
2018-10-21T01:18:50.182Z,0.00
2018-10-21T01:19:50.029Z,0.00
2018-10-21T01:20:50.014Z,0.00
2018-10-21T01:21:50.004Z,0.00
2018-10-21T01:22:49.995Z,0.00
2018-10-21T01:23:50.183Z,0.00
2018-10-21T01:24:49.976Z,0.00
2018-10-21T01:25:49.962Z,0.00
2018-10-21T01:26:49.961Z,0.00
2018-10-21T01:27:49.955Z,0.00
2018-10-21T01:28:50.178Z,0.00
2018-10-21T01:29:49.920Z,0.00
2018-10-21T01:30:49.915Z,0.00
2018-10-21T01:31:49.897Z,0.00
2018-10-21T01:32:49.899Z,0.00
2018-10-21T01:33:50.226Z,0.00
2018-10-21T01:34:49.872Z,0.00
2018-10-21T01:35:49.856Z,0.00
2018-10-21T01:36:49.903Z,0.00
2018-10-21T01:37:49.851Z,0.00
2018-10-21T01:38:50.182Z,0.00
2018-10-21T01:39:49.825Z,0.00
2018-10-21T01:40:49.801Z,0.00
2018-10-21T01:41:49.793Z,0.00
2018-10-21T01:42:49.792Z,0.00
2018-10-21T01:43:49.787Z,0.00
2018-10-21T01:44:49.765Z,0.00
2018-10-21T01:45:49.761Z,0.00
2018-10-21T01:46:49.745Z,0.00
2018-10-21T01:47:49.733Z,0.00
2018-10-21T01:48:49.734Z,0.00
2018-10-21T01:49:49.710Z,0.00
2018-10-21T01:50:49.701Z,0.00
2018-10-21T01:51:49.696Z,0.00
2018-10-21T01:52:49.681Z,0.00
2018-10-21T01:53:49.680Z,0.00
2018-10-21T01:54:49.712Z,0.00
2018-10-21T01:55:49.644Z,0.00
2018-10-21T01:56:49.649Z,0.00
2018-10-21T01:57:49.626Z,0.00
2018-10-21T01:58:49.684Z,0.00
2018-10-21T01:59:49.608Z,0.00
2018-10-21T02:00:49.598Z,0.00
2018-10-21T02:01:49.601Z,0.00
2018-10-21T02:02:49.572Z,0.00
2018-10-21T02:03:49.588Z,0.00
2018-10-21T02:04:49.599Z,0.00
2018-10-21T02:05:49.553Z,0.00
2018-10-21T02:06:49.534Z,0.00
2018-10-21T02:07:49.555Z,0.00
2018-10-21T02:08:49.507Z,0.00
2018-10-21T02:09:49.510Z,0.00
2018-10-21T02:10:49.521Z,0.00
2018-10-21T02:11:49.555Z,0.00
2018-10-21T02:12:49.466Z,0.00
2018-10-21T02:13:49.471Z,0.00
2018-10-21T02:14:49.453Z,0.00
2018-10-21T02:15:49.455Z,0.00
2018-10-21T02:16:49.495Z,0.00
2018-10-21T02:17:49.423Z,0.00
2018-10-21T02:18:49.429Z,0.00
2018-10-21T02:19:49.401Z,0.00
2018-10-21T02:20:49.390Z,0.00
2018-10-21T02:21:49.381Z,0.00
2018-10-21T02:22:49.394Z,0.00
2018-10-21T02:23:49.357Z,0.00
2018-10-21T02:24:49.350Z,0.00
2018-10-21T02:25:49.334Z,0.00
2018-10-21T02:26:49.390Z,0.00
2018-10-21T02:27:49.311Z,0.00
2018-10-21T02:28:49.678Z,0.00
2018-10-21T02:29:49.289Z,0.00
2018-10-21T02:30:49.300Z,0.00
2018-10-21T02:31:49.269Z,0.00
2018-10-21T02:32:49.295Z,0.00
2018-10-21T02:33:49.247Z,0.00
2018-10-21T02:34:49.253Z,0.00
2018-10-21T02:35:49.224Z,0.00
2018-10-21T02:36:49.257Z,0.00
2018-10-21T02:37:49.204Z,0.00
2018-10-21T02:38:49.205Z,0.00
2018-10-21T02:39:49.181Z,0.00
2018-10-21T02:40:49.224Z,0.00
2018-10-21T02:41:49.163Z,0.00
2018-10-21T02:42:49.161Z,0.00
2018-10-21T02:43:49.140Z,0.00
2018-10-21T02:44:49.128Z,0.00
2018-10-21T02:45:49.125Z,0.00
2018-10-21T02:46:49.124Z,0.00
2018-10-21T02:47:49.102Z,0.00
2018-10-21T02:48:49.096Z,0.00
2018-10-21T02:49:49.095Z,0.00
2018-10-21T02:50:49.068Z,0.00
2018-10-21T02:51:49.056Z,0.00
2018-10-21T02:52:49.047Z,0.00
2018-10-21T02:53:49.036Z,0.00
2018-10-21T02:54:49.068Z,0.00
2018-10-21T02:55:49.013Z,0.00
2018-10-21T02:56:49.030Z,0.00
2018-10-21T02:57:49.033Z,0.00
2018-10-21T02:58:48.981Z,0.00
2018-10-21T02:59:48.997Z,0.00
2018-10-21T03:00:48.975Z,0.00
2018-10-21T03:01:48.950Z,0.00
2018-10-21T03:02:48.939Z,0.00
2018-10-21T03:03:48.926Z,0.00
2018-10-21T03:04:48.938Z,0.00
2018-10-21T03:05:48.915Z,0.00
2018-10-21T03:06:48.986Z,0.00
2018-10-21T03:07:48.888Z,0.00
2018-10-21T03:08:48.877Z,0.00
2018-10-21T03:09:48.881Z,0.00
2018-10-21T03:10:48.856Z,0.00
2018-10-21T03:11:48.847Z,0.00
2018-10-21T03:12:48.836Z,0.00
2018-10-21T03:13:48.822Z,0.00
2018-10-21T03:14:48.825Z,0.00
2018-10-21T03:15:48.811Z,0.00
2018-10-21T03:16:48.796Z,0.00
2018-10-21T03:17:48.784Z,0.00
2018-10-21T03:18:48.830Z,0.00
2018-10-21T03:19:48.781Z,0.00
2018-10-21T03:20:48.760Z,0.00
2018-10-21T03:21:48.740Z,0.00
2018-10-21T03:22:48.727Z,0.00
2018-10-21T03:23:48.719Z,0.00
2018-10-21T03:24:48.721Z,0.00
2018-10-21T03:25:48.695Z,0.00
2018-10-21T03:26:48.695Z,0.00
2018-10-21T03:27:48.681Z,0.00
2018-10-21T03:28:48.667Z,0.00
2018-10-21T03:29:48.671Z,0.00
2018-10-21T03:30:48.647Z,0.00
2018-10-21T03:31:48.636Z,0.00
2018-10-21T03:32:48.632Z,0.00
2018-10-21T03:33:48.720Z,0.00
2018-10-21T03:34:48.622Z,0.00
2018-10-21T03:35:48.594Z,0.00
2018-10-21T03:36:48.580Z,0.00
2018-10-21T03:37:48.579Z,0.00
2018-10-21T03:38:48.562Z,0.00
2018-10-21T03:39:49.167Z,0.00
2018-10-21T03:40:48.543Z,0.00
2018-10-21T03:41:48.525Z,0.00
2018-10-21T03:42:48.524Z,0.00
2018-10-21T03:43:48.507Z,0.00
2018-10-21T03:44:48.531Z,0.00
2018-10-21T03:45:48.505Z,0.00
2018-10-21T03:46:48.472Z,0.00
2018-10-21T03:47:48.462Z,0.00
2018-10-21T03:48:48.457Z,0.00
2018-10-21T03:49:48.444Z,0.00
2018-10-21T03:50:48.442Z,0.00
2018-10-21T03:51:48.439Z,0.00
2018-10-21T03:52:48.452Z,0.00
2018-10-21T03:53:48.402Z,0.00
2018-10-21T03:54:48.388Z,0.00
2018-10-21T03:55:48.403Z,0.00
2018-10-21T03:56:48.373Z,0.00
2018-10-21T03:57:48.364Z,0.00
2018-10-21T03:58:48.345Z,0.00
2018-10-21T03:59:48.347Z,0.00
2018-10-21T04:00:48.346Z,0.00
2018-10-21T04:01:48.314Z,0.00
2018-10-21T04:02:48.305Z,0.00
2018-10-21T04:03:48.300Z,0.00
2018-10-21T04:04:48.283Z,0.00
2018-10-21T04:05:48.288Z,0.00
2018-10-21T04:06:48.263Z,0.00
2018-10-21T04:07:48.252Z,0.00
2018-10-21T04:08:48.241Z,0.00
2018-10-21T04:09:48.235Z,0.00
2018-10-21T04:10:48.234Z,0.00
2018-10-21T04:11:48.225Z,0.00
2018-10-21T04:12:48.201Z,0.00
2018-10-21T04:13:48.187Z,0.00
2018-10-21T04:14:48.177Z,0.00
2018-10-21T04:15:48.188Z,0.00
2018-10-21T04:16:48.154Z,0.00
2018-10-21T04:17:48.148Z,0.00
2018-10-21T04:18:48.139Z,0.00
2018-10-21T04:19:48.128Z,0.00
2018-10-21T04:20:48.131Z,0.00
2018-10-21T04:21:48.107Z,0.00
2018-10-21T04:22:48.101Z,0.00
2018-10-21T04:23:48.085Z,0.00
2018-10-21T04:24:48.070Z,0.00
2018-10-21T04:25:48.076Z,0.00
2018-10-21T04:26:48.055Z,0.00
2018-10-21T04:27:48.039Z,0.00
2018-10-21T04:28:48.035Z,0.00
2018-10-21T04:29:48.024Z,0.00
2018-10-21T04:30:48.027Z,0.00
2018-10-21T04:31:48.027Z,0.00
2018-10-21T04:32:47.994Z,0.00
2018-10-21T04:33:47.975Z,0.00
2018-10-21T04:34:47.997Z,0.00
2018-10-21T04:35:47.962Z,0.00
2018-10-21T04:36:48.205Z,0.00
2018-10-21T04:37:47.964Z,0.00
2018-10-21T04:38:48.013Z,0.00
2018-10-21T04:39:47.925Z,0.00
2018-10-21T04:40:48.672Z,0.00
2018-10-21T04:41:47.957Z,0.00
2018-10-21T04:42:47.962Z,0.00
2018-10-21T04:43:47.887Z,0.00
2018-10-21T04:44:47.881Z,0.00
2018-10-21T04:45:47.866Z,0.00
2018-10-21T04:46:48.783Z,0.00
2018-10-21T04:47:47.886Z,0.00
2018-10-21T04:48:47.867Z,0.00
2018-10-21T04:49:47.837Z,0.00
2018-10-21T04:50:47.963Z,0.00
2018-10-21T04:51:47.802Z,0.00
2018-10-21T04:52:47.789Z,0.00
2018-10-21T04:53:47.765Z,0.00
2018-10-21T04:54:47.833Z,0.00
2018-10-21T04:55:47.866Z,0.00
2018-10-21T04:56:47.753Z,0.00
2018-10-21T04:57:47.754Z,0.00
2018-10-21T04:58:47.732Z,0.00
2018-10-21T04:59:47.712Z,0.00
2018-10-21T05:00:47.863Z,0.00
2018-10-21T05:01:47.680Z,0.00
2018-10-21T05:02:47.731Z,0.00
2018-10-21T05:03:47.667Z,0.00
2018-10-21T05:04:47.738Z,0.00
2018-10-21T05:05:47.701Z,0.00
2018-10-21T05:06:47.633Z,0.00
2018-10-21T05:07:47.625Z,0.00
2018-10-21T05:08:47.628Z,0.00
2018-10-21T05:09:47.652Z,0.00
2018-10-21T05:10:47.646Z,0.00
2018-10-21T05:11:47.588Z,0.00
2018-10-21T05:12:47.618Z,0.00
2018-10-21T05:13:47.590Z,0.00
2018-10-21T05:14:47.565Z,0.00
2018-10-21T05:15:47.673Z,0.00
2018-10-21T05:16:48.165Z,0.00
2018-10-21T05:17:47.582Z,0.00
2018-10-21T05:18:47.503Z,0.00
2018-10-21T05:19:47.537Z,0.00
2018-10-21T05:20:47.505Z,0.00
2018-10-21T05:21:47.546Z,0.00
2018-10-21T05:22:47.475Z,0.00
2018-10-21T05:23:47.474Z,0.00
2018-10-21T05:24:47.509Z,0.00
2018-10-21T05:25:47.427Z,0.00
2018-10-21T05:26:47.478Z,0.00
2018-10-21T05:27:47.418Z,0.00
2018-10-21T05:28:47.416Z,0.00
2018-10-21T05:29:47.392Z,0.00
2018-10-21T05:30:47.377Z,0.00
2018-10-21T05:31:47.728Z,0.00
2018-10-21T05:32:47.418Z,0.00
2018-10-21T05:33:47.350Z,4.00
2018-10-21T05:34:47.393Z,4.00
2018-10-21T05:35:47.419Z,0.00
2018-10-21T05:36:47.698Z,4.00
2018-10-21T05:37:47.443Z,4.00
2018-10-21T05:38:47.337Z,4.00
2018-10-21T05:39:47.290Z,4.00
2018-10-21T05:40:47.327Z,4.00
2018-10-21T05:41:47.679Z,8.00
2018-10-21T05:42:47.278Z,8.00
2018-10-21T05:43:47.296Z,8.00
2018-10-21T05:44:47.300Z,12.00
2018-10-21T05:45:47.272Z,12.00
2018-10-21T05:46:47.437Z,16.00
2018-10-21T05:47:47.225Z,16.00
2018-10-21T05:48:47.239Z,24.00
2018-10-21T05:49:47.185Z,24.00
2018-10-21T05:50:47.202Z,28.00
2018-10-21T05:51:47.845Z,32.00
2018-10-21T05:52:47.147Z,40.00
2018-10-21T05:53:47.136Z,44.00
2018-10-21T05:54:47.131Z,52.00
2018-10-21T05:55:47.120Z,60.00
2018-10-21T05:56:47.144Z,68.00
2018-10-21T05:57:47.197Z,76.00
2018-10-21T05:58:47.086Z,80.00
2018-10-21T05:59:47.090Z,92.00
2018-10-21T06:00:47.058Z,100.00
2018-10-21T06:01:47.073Z,112.00
2018-10-21T06:02:47.112Z,124.00
2018-10-21T06:03:47.030Z,132.00
2018-10-21T06:04:47.016Z,148.00
2018-10-21T06:05:47.054Z,160.00
2018-10-21T06:06:47.193Z,172.00
2018-10-21T06:07:47.055Z,188.00
2018-10-21T06:08:46.996Z,200.00
2018-10-21T06:09:46.974Z,216.00
2018-10-21T06:10:46.954Z,228.00
2018-10-21T06:11:47.265Z,248.00
2018-10-21T06:12:46.937Z,260.00
2018-10-21T06:13:46.926Z,276.00
2018-10-21T06:14:46.945Z,288.00
2018-10-21T06:15:47.001Z,308.00
2018-10-21T06:16:46.908Z,320.00
2018-10-21T06:17:46.880Z,336.00
2018-10-21T06:18:46.920Z,352.00
2018-10-21T06:19:46.893Z,368.00
2018-10-21T06:20:46.863Z,384.00
2018-10-21T06:21:46.836Z,404.00
2018-10-21T06:22:47.312Z,416.00
2018-10-21T06:23:46.851Z,440.00
2018-10-21T06:24:46.810Z,460.00
2018-10-21T06:25:46.795Z,484.00
2018-10-21T06:26:46.831Z,504.00
2018-10-21T06:27:46.827Z,524.00
2018-10-21T06:28:46.762Z,540.00
2018-10-21T06:29:46.753Z,556.00
2018-10-21T06:30:46.765Z,572.00
2018-10-21T06:31:46.743Z,592.00
2018-10-21T06:32:47.168Z,612.00
2018-10-21T06:33:46.772Z,632.00
2018-10-21T06:34:46.711Z,652.00
2018-10-21T06:35:46.692Z,676.00
2018-10-21T06:36:46.771Z,704.00
2018-10-21T06:37:46.694Z,728.00
2018-10-21T06:38:46.714Z,756.00
2018-10-21T06:39:46.659Z,776.00
2018-10-21T06:40:46.639Z,796.00
2018-10-21T06:41:46.632Z,820.00
2018-10-21T06:42:46.621Z,836.00
2018-10-21T06:43:46.699Z,856.00
2018-10-21T06:44:46.595Z,872.00
2018-10-21T06:45:46.637Z,888.00
2018-10-21T06:46:46.575Z,904.00
2018-10-21T06:47:46.574Z,920.00
2018-10-21T06:48:46.571Z,904.00
2018-10-21T06:49:46.556Z,956.00
2018-10-21T06:50:46.632Z,968.00
2018-10-21T06:51:46.533Z,988.00
2018-10-21T06:52:46.527Z,1000.00
2018-10-21T06:53:46.513Z,1012.00
2018-10-21T06:54:46.493Z,1024.00
2018-10-21T06:55:46.481Z,1036.00
2018-10-21T06:56:46.696Z,1052.00
2018-10-21T06:57:46.554Z,1068.00
2018-10-21T06:58:46.449Z,1084.00
2018-10-21T06:59:46.440Z,1104.00
2018-10-21T07:00:46.426Z,1112.00
2018-10-21T07:01:46.416Z,1128.00
2018-10-21T07:02:46.417Z,1144.00
2018-10-21T07:03:46.396Z,1156.00
2018-10-21T07:04:46.408Z,1176.00
2018-10-21T07:05:46.370Z,1192.00
2018-10-21T07:06:46.362Z,1204.00
2018-10-21T07:07:46.368Z,1212.00
2018-10-21T07:08:46.343Z,1228.00
2018-10-21T07:09:46.330Z,1236.00
2018-10-21T07:10:46.328Z,1248.00
2018-10-21T07:11:46.314Z,1264.00
2018-10-21T07:12:46.602Z,1268.00
2018-10-21T07:13:46.287Z,1284.00
2018-10-21T07:14:46.283Z,1296.00
2018-10-21T07:15:46.298Z,1308.00
2018-10-21T07:16:46.334Z,1316.00
2018-10-21T07:17:46.260Z,1328.00
2018-10-21T07:18:46.251Z,1336.00
2018-10-21T07:19:46.223Z,1356.00
2018-10-21T07:20:46.235Z,1364.00
2018-10-21T07:21:46.201Z,1368.00
2018-10-21T07:22:46.208Z,1384.00
2018-10-21T07:23:46.183Z,1396.00
2018-10-21T07:24:46.170Z,1400.00
2018-10-21T07:25:46.170Z,1412.00
2018-10-21T07:26:46.159Z,1416.00
2018-10-21T07:27:46.167Z,1428.00
2018-10-21T07:28:46.132Z,1436.00
2018-10-21T07:29:46.118Z,1444.00
2018-10-21T07:30:46.117Z,1452.00
2018-10-21T07:31:46.101Z,1464.00
2018-10-21T07:32:46.107Z,1468.00
2018-10-21T07:33:46.091Z,1472.00
2018-10-21T07:34:46.271Z,1472.00
2018-10-21T07:35:46.055Z,1476.00
2018-10-21T07:36:46.047Z,1476.00
2018-10-21T07:37:46.051Z,1468.00
2018-10-21T07:38:46.041Z,1468.00
2018-10-21T07:39:46.012Z,1472.00
2018-10-21T07:40:46.002Z,1464.00
2018-10-21T07:41:45.997Z,1472.00
2018-10-21T07:42:46.159Z,1484.00
2018-10-21T07:43:45.979Z,1480.00
2018-10-21T07:44:45.968Z,1492.00
2018-10-21T07:45:45.955Z,1496.00
2018-10-21T07:46:45.940Z,1500.00
2018-10-21T07:47:45.933Z,1500.00
2018-10-21T07:48:45.932Z,1504.00
2018-10-21T07:49:45.906Z,1504.00
2018-10-21T07:50:45.895Z,1504.00
2018-10-21T07:51:45.890Z,1508.00
2018-10-21T07:52:45.890Z,1504.00
2018-10-21T07:53:46.157Z,1508.00
2018-10-21T07:54:45.857Z,1512.00
2018-10-21T07:55:45.957Z,1512.00
2018-10-21T07:56:46.046Z,1516.00
2018-10-21T07:57:45.823Z,1516.00
2018-10-21T07:58:46.170Z,1520.00
2018-10-21T07:59:45.809Z,1520.00
2018-10-21T08:00:45.807Z,1520.00
2018-10-21T08:01:45.781Z,1524.00
2018-10-21T08:02:45.775Z,1532.00
2018-10-21T08:03:45.793Z,1528.00
2018-10-21T08:04:45.747Z,1536.00
2018-10-21T08:05:45.742Z,1536.00
2018-10-21T08:06:45.748Z,1540.00
2018-10-21T08:07:45.727Z,1544.00
2018-10-21T08:08:46.247Z,1548.00
2018-10-21T08:09:45.699Z,1552.00
2018-10-21T08:10:45.683Z,1556.00
2018-10-21T08:11:45.676Z,1556.00
2018-10-21T08:12:45.681Z,1560.00
2018-10-21T08:13:46.168Z,1564.00
2018-10-21T08:14:45.694Z,1568.00
2018-10-21T08:15:45.650Z,1568.00
2018-10-21T08:16:45.640Z,1572.00
2018-10-21T08:17:45.832Z,1576.00
2018-10-21T08:18:45.670Z,1576.00
2018-10-21T08:19:45.589Z,1580.00
2018-10-21T08:20:45.577Z,1580.00
2018-10-21T08:21:45.572Z,1576.00
2018-10-21T08:22:45.575Z,1576.00
2018-10-21T08:23:45.655Z,1576.00
2018-10-21T08:24:45.542Z,1576.00
2018-10-21T08:25:45.534Z,1580.00
2018-10-21T08:26:45.519Z,1580.00
2018-10-21T08:27:45.507Z,1580.00
2018-10-21T08:28:45.666Z,1584.00
2018-10-21T08:29:45.490Z,1584.00
2018-10-21T08:30:45.473Z,1588.00
2018-10-21T08:31:45.465Z,1588.00
2018-10-21T08:32:45.449Z,1588.00
2018-10-21T08:33:45.511Z,1584.00
2018-10-21T08:34:45.445Z,1584.00
2018-10-21T08:35:45.446Z,1588.00
2018-10-21T08:36:45.411Z,1592.00
2018-10-21T08:37:45.414Z,1596.00
2018-10-21T08:38:45.470Z,1640.00
2018-10-21T08:39:45.572Z,2116.00
2018-10-21T08:40:45.364Z,2620.00
2018-10-21T08:41:45.371Z,2608.00
2018-10-21T08:42:45.347Z,2724.00
2018-10-21T08:43:45.367Z,2100.00
2018-10-21T08:44:45.324Z,1648.00
2018-10-21T08:45:45.316Z,1608.00
2018-10-21T08:46:45.328Z,1600.00
2018-10-21T08:47:45.354Z,1600.00
2018-10-21T08:48:45.299Z,1600.00
2018-10-21T08:49:45.327Z,1608.00
2018-10-21T08:50:45.259Z,1604.00
2018-10-21T08:51:45.246Z,1604.00
2018-10-21T08:52:45.234Z,1604.00
2018-10-21T08:53:45.660Z,1608.00
2018-10-21T08:54:45.224Z,1608.00
2018-10-21T08:55:45.227Z,1612.00
2018-10-21T08:56:45.195Z,1612.00
2018-10-21T08:57:45.187Z,1616.00
2018-10-21T08:58:45.178Z,1620.00
2018-10-21T08:59:45.665Z,1624.00
2018-10-21T09:00:45.201Z,1624.00
2018-10-21T09:01:45.153Z,1628.00
2018-10-21T09:02:45.129Z,1628.00
2018-10-21T09:03:45.125Z,1632.00
2018-10-21T09:04:45.174Z,1632.00
2018-10-21T09:05:45.096Z,1632.00
2018-10-21T09:06:45.099Z,1640.00
2018-10-21T09:07:45.073Z,1648.00
2018-10-21T09:08:45.066Z,1652.00
2018-10-21T09:09:45.069Z,1656.00
2018-10-21T09:10:45.200Z,1652.00
2018-10-21T09:11:45.048Z,1664.00
2018-10-21T09:12:45.028Z,1664.00
2018-10-21T09:13:45.013Z,1672.00
2018-10-21T09:14:45.031Z,1676.00
2018-10-21T09:15:44.987Z,1684.00
2018-10-21T09:16:45.060Z,1696.00
2018-10-21T09:17:44.978Z,1692.00
2018-10-21T09:18:44.963Z,1696.00
2018-10-21T09:19:45.150Z,1700.00
2018-10-21T09:20:44.932Z,1708.00
2018-10-21T09:21:44.925Z,1708.00
2018-10-21T09:22:44.916Z,1708.00
2018-10-21T09:23:44.929Z,1708.00
2018-10-21T09:24:45.153Z,1700.00
2018-10-21T09:25:44.879Z,1704.00
2018-10-21T09:26:44.870Z,1700.00
2018-10-21T09:27:44.866Z,1696.00
2018-10-21T09:28:44.871Z,1688.00
2018-10-21T09:29:45.157Z,1688.00
2018-10-21T09:30:44.825Z,1696.00
2018-10-21T09:31:44.822Z,1700.00
2018-10-21T09:32:44.805Z,1704.00
2018-10-21T09:33:44.795Z,1708.00
2018-10-21T09:34:44.814Z,1716.00
2018-10-21T09:35:44.773Z,1720.00
2018-10-21T09:36:44.765Z,1736.00
2018-10-21T09:37:44.754Z,1744.00
2018-10-21T09:38:44.742Z,1752.00
2018-10-21T09:39:44.747Z,1756.00
2018-10-21T09:40:44.725Z,1764.00
2018-10-21T09:41:44.720Z,1776.00
2018-10-21T09:42:44.712Z,1776.00
2018-10-21T09:43:44.690Z,1780.00
2018-10-21T09:44:45.160Z,1780.00
2018-10-21T09:45:44.674Z,1780.00
2018-10-21T09:46:44.663Z,1784.00
2018-10-21T09:47:44.652Z,1792.00
2018-10-21T09:48:44.654Z,1792.00
2018-10-21T09:49:44.685Z,1804.00
2018-10-21T09:50:44.620Z,1796.00
2018-10-21T09:51:44.605Z,1800.00
2018-10-21T09:52:44.597Z,1800.00
2018-10-21T09:53:44.581Z,1800.00
2018-10-21T09:54:44.651Z,1804.00
2018-10-21T09:55:44.574Z,1792.00
2018-10-21T09:56:44.549Z,1780.00
2018-10-21T09:57:44.542Z,1784.00
2018-10-21T09:58:44.665Z,1784.00
2018-10-21T09:59:44.651Z,1788.00
2018-10-21T10:00:44.510Z,1792.00
2018-10-21T10:01:44.500Z,1788.00
2018-10-21T10:02:44.488Z,1792.00
2018-10-21T10:03:44.480Z,1784.00
2018-10-21T10:04:44.563Z,1788.00
2018-10-21T10:05:44.468Z,1788.00
2018-10-21T10:06:44.503Z,1788.00
2018-10-21T10:07:44.442Z,1792.00
2018-10-21T10:08:44.427Z,1800.00
2018-10-21T10:09:44.425Z,1800.00
2018-10-21T10:10:44.414Z,1796.00
2018-10-21T10:11:44.389Z,1804.00
2018-10-21T10:12:44.374Z,1800.00
2018-10-21T10:13:44.377Z,1796.00
2018-10-21T10:14:44.376Z,1800.00
2018-10-21T10:15:44.349Z,1808.00
2018-10-21T10:16:44.332Z,1800.00
2018-10-21T10:17:44.427Z,1804.00
2018-10-21T10:18:44.314Z,1800.00
2018-10-21T10:19:44.304Z,1796.00
2018-10-21T10:20:44.321Z,1796.00
2018-10-21T10:21:44.284Z,1796.00
2018-10-21T10:22:44.277Z,1788.00
2018-10-21T10:23:44.305Z,1784.00
2018-10-21T10:24:44.256Z,1784.00
2018-10-21T10:25:44.263Z,1776.00
2018-10-21T10:26:44.227Z,1784.00
2018-10-21T10:27:44.220Z,1780.00
2018-10-21T10:28:44.217Z,1784.00
2018-10-21T10:29:44.200Z,1780.00
2018-10-21T10:30:44.203Z,1780.00
2018-10-21T10:31:44.172Z,1772.00
2018-10-21T10:32:44.167Z,1772.00
2018-10-21T10:33:44.171Z,1772.00
2018-10-21T10:34:44.143Z,1760.00
2018-10-21T10:35:44.158Z,1764.00
2018-10-21T10:36:44.124Z,1760.00
2018-10-21T10:37:44.108Z,1756.00
2018-10-21T10:38:44.098Z,1752.00
2018-10-21T10:39:44.098Z,1748.00
2018-10-21T10:40:44.094Z,1740.00
2018-10-21T10:41:44.093Z,1740.00
2018-10-21T10:42:44.093Z,1736.00
2018-10-21T10:43:44.046Z,1736.00
2018-10-21T10:44:44.033Z,1736.00
2018-10-21T10:45:44.036Z,1736.00
2018-10-21T10:46:44.015Z,1740.00
2018-10-21T10:47:44.216Z,1732.00
2018-10-21T10:48:43.998Z,1732.00
2018-10-21T10:49:43.980Z,1728.00
2018-10-21T10:50:44.165Z,1736.00
2018-10-21T10:51:43.955Z,1740.00
2018-10-21T10:52:43.944Z,1744.00
2018-10-21T10:53:43.937Z,1756.00
2018-10-21T10:54:43.959Z,1752.00
2018-10-21T10:55:43.928Z,1748.00
2018-10-21T10:56:43.904Z,1748.00
2018-10-21T10:57:43.909Z,1748.00
2018-10-21T10:58:43.884Z,1748.00
2018-10-21T10:59:43.979Z,1740.00
2018-10-21T11:00:43.899Z,1748.00
2018-10-21T11:01:43.850Z,1744.00
2018-10-21T11:02:43.842Z,1740.00
2018-10-21T11:03:43.828Z,1740.00
2018-10-21T11:04:43.823Z,1740.00
2018-10-21T11:05:43.821Z,1744.00
2018-10-21T11:06:43.821Z,1740.00
2018-10-21T11:07:43.787Z,1736.00
2018-10-21T11:08:43.781Z,1736.00
2018-10-21T11:09:43.762Z,1736.00
2018-10-21T11:10:43.777Z,1736.00
2018-10-21T11:11:43.746Z,1744.00
2018-10-21T11:12:43.736Z,1740.00
2018-10-21T11:13:43.740Z,1736.00
2018-10-21T11:14:43.782Z,1740.00
2018-10-21T11:15:43.699Z,1728.00
2018-10-21T11:16:44.155Z,1728.00
2018-10-21T11:17:43.684Z,1720.00
2018-10-21T11:18:43.673Z,1716.00
2018-10-21T11:19:43.673Z,1712.00
2018-10-21T11:20:43.652Z,1708.00
2018-10-21T11:21:43.750Z,1704.00
2018-10-21T11:22:43.770Z,1708.00
2018-10-21T11:23:43.619Z,1724.00
2018-10-21T11:24:43.613Z,1732.00
2018-10-21T11:25:43.603Z,1724.00
2018-10-21T11:26:43.655Z,1796.00
2018-10-21T11:27:43.582Z,1700.00
2018-10-21T11:28:43.570Z,1692.00
2018-10-21T11:29:43.613Z,1680.00
2018-10-21T11:30:43.546Z,1676.00
2018-10-21T11:31:43.559Z,1668.00
2018-10-21T11:32:43.545Z,1664.00
2018-10-21T11:33:43.511Z,1660.00
2018-10-21T11:34:43.510Z,1652.00
2018-10-21T11:35:43.488Z,1648.00
2018-10-21T11:36:43.669Z,1648.00
2018-10-21T11:37:43.567Z,1648.00
2018-10-21T11:38:43.480Z,1652.00
2018-10-21T11:39:43.448Z,1644.00
2018-10-21T11:40:43.438Z,1644.00
2018-10-21T11:41:43.431Z,1640.00
2018-10-21T11:42:43.424Z,1648.00
2018-10-21T11:43:43.664Z,1640.00
2018-10-21T11:44:43.400Z,1640.00
2018-10-21T11:45:43.463Z,1636.00
2018-10-21T11:46:43.397Z,1628.00
2018-10-21T11:47:43.370Z,1620.00
2018-10-21T11:48:43.355Z,1616.00
2018-10-21T11:49:43.346Z,1612.00
2018-10-21T11:50:43.331Z,1600.00
2018-10-21T11:51:43.335Z,1612.00
2018-10-21T11:52:43.374Z,1604.00
2018-10-21T11:53:43.308Z,1608.00
2018-10-21T11:54:43.296Z,1600.00
2018-10-21T11:55:43.289Z,1608.00
2018-10-21T11:56:43.291Z,1604.00
2018-10-21T11:57:43.262Z,1604.00
2018-10-21T11:58:43.246Z,1600.00
2018-10-21T11:59:43.237Z,1588.00
2018-10-21T12:00:43.235Z,1596.00
2018-10-21T12:01:43.227Z,1596.00
2018-10-21T12:02:43.207Z,1604.00
2018-10-21T12:03:43.199Z,1604.00
2018-10-21T12:04:43.189Z,1600.00
2018-10-21T12:05:43.173Z,1600.00
2018-10-21T12:06:43.661Z,1600.00
2018-10-21T12:07:43.156Z,1596.00
2018-10-21T12:08:43.136Z,1588.00
2018-10-21T12:09:43.128Z,1584.00
2018-10-21T12:10:43.119Z,1588.00
2018-10-21T12:11:43.164Z,1596.00
2018-10-21T12:12:43.100Z,1600.00
2018-10-21T12:13:43.083Z,1596.00
2018-10-21T12:14:43.094Z,1592.00
2018-10-21T12:15:43.065Z,1592.00
2018-10-21T12:16:43.067Z,1584.00
2018-10-21T12:17:43.046Z,1588.00
2018-10-21T12:18:43.043Z,1592.00
2018-10-21T12:19:43.043Z,1588.00
2018-10-21T12:20:43.007Z,1596.00
2018-10-21T12:21:43.007Z,1592.00
2018-10-21T12:22:43.034Z,1592.00
2018-10-21T12:23:42.987Z,1588.00
2018-10-21T12:24:42.962Z,1592.00
2018-10-21T12:25:43.032Z,1588.00
2018-10-21T12:26:42.971Z,1580.00
2018-10-21T12:27:42.943Z,1580.00
2018-10-21T12:28:42.926Z,1576.00
2018-10-21T12:29:42.909Z,1576.00
2018-10-21T12:30:42.897Z,1564.00
2018-10-21T12:31:42.904Z,1564.00
2018-10-21T12:32:42.876Z,1556.00
2018-10-21T12:33:43.074Z,1544.00
2018-10-21T12:34:42.857Z,1540.00
2018-10-21T12:35:42.840Z,1536.00
2018-10-21T12:36:43.156Z,1532.00
2018-10-21T12:37:42.827Z,1544.00
2018-10-21T12:38:42.809Z,1536.00
2018-10-21T12:39:42.802Z,1536.00